Time;durP1;ratioP1;P1;durP2;ratioP2;P2;SDS_P1;SDS_P2;PMS_P1;PMS_P2;Temp;Humidity;BMP_temperature;BMP_pressure;BME280_temperature;BME280_humidity;BME280_pressure;Samples;Min_cycle;Max_cycle;Signal;HPM_P1;HPM_P2
2023/08/02 00:02:10;;;;;;;8.85;3.53;;;;;;;19.66;nan;99496.09;5015287;28;20082;-73
2023/08/02 00:04:35;;;;;;;5.63;3.45;;;;;;;19.67;nan;99497.66;5018174;28;20029;-73
2023/08/02 00:07:02;;;;;;;10.85;3.42;;;;;;;19.72;nan;99491.44;5021934;28;20435;-74
2023/08/02 00:09:27;;;;;;;8.07;3.30;;;;;;;19.63;nan;99480.69;5018266;28;20025;-73
2023/08/02 00:11:53;;;;;;;7.75;3.20;;;;;;;19.71;nan;99496.00;5018332;28;20033;-73
2023/08/02 00:14:18;;;;;;;6.75;3.53;;;;;;;19.68;nan;99496.63;5015562;28;20411;-73
2023/08/02 00:16:44;;;;;;;9.80;4.10;;;;;;;19.68;nan;99506.50;5016030;28;20026;-73
2023/08/02 00:19:09;;;;;;;7.97;3.22;;;;;;;19.70;nan;99497.06;5018485;28;20116;-74
2023/08/02 00:21:34;;;;;;;8.40;3.90;;;;;;;19.66;nan;99496.09;5018954;28;20061;-74
2023/08/02 00:24:00;;;;;;;7.70;3.75;;;;;;;19.69;nan;99506.19;5015302;28;20660;-73
2023/08/02 00:26:27;;;;;;;4.80;3.45;;;;;;;19.60;nan;99491.97;5017805;28;20029;-74
2023/08/02 00:28:52;;;;;;;9.30;4.40;;;;;;;19.67;nan;99502.22;5021783;28;20021;-73
2023/08/02 00:31:18;;;;;;;6.68;3.22;;;;;;;19.76;nan;99517.22;5017511;28;20025;-73
2023/08/02 00:33:44;;;;;;;6.68;3.45;;;;;;;19.65;nan;99507.09;5016949;28;20022;-72
2023/08/02 00:36:10;;;;;;;7.30;3.30;;;;;;;19.65;nan;99510.53;5016041;28;20029;-75
2023/08/02 00:38:35;;;;;;;9.82;3.50;;;;;;;19.69;nan;99530.25;5016217;28;20076;-73
2023/08/02 00:41:02;;;;;;;8.68;3.42;;;;;;;19.60;nan;99542.72;5018448;28;20506;-74
2023/08/02 00:43:28;;;;;;;11.98;4.00;;;;;;;19.62;nan;99545.88;5016875;28;20033;-74
2023/08/02 00:45:53;;;;;;;11.00;3.83;;;;;;;19.57;nan;99531.88;5018097;28;20040;-73
2023/08/02 00:48:19;;;;;;;5.53;3.83;;;;;;;19.61;nan;99536.31;5016986;28;20029;-74
2023/08/02 00:50:44;;;;;;;6.40;3.40;;;;;;;19.61;nan;99547.00;5016613;28;20744;-74
2023/08/02 00:53:10;;;;;;;7.38;3.40;;;;;;;19.64;nan;99553.59;5016640;28;20035;-74
2023/08/02 00:55:35;;;;;;;6.78;3.88;;;;;;;19.67;nan;99564.44;5015380;28;20109;-73
2023/08/02 00:58:01;;;;;;;6.03;3.30;;;;;;;19.69;nan;99556.94;5018229;28;20029;-73
2023/08/02 01:00:27;;;;;;;7.50;3.58;;;;;;;19.68;nan;99546.56;5016283;28;20041;-74
2023/08/02 01:02:53;;;;;;;5.35;3.45;;;;;;;19.74;nan;99543.47;5016095;28;20064;-73
2023/08/02 01:05:26;;;;;;;4.35;3.20;;;;;;;19.70;nan;99547.84;5014405;28;20021;-73
2023/08/02 01:07:58;;;;;;;6.43;3.40;;;;;;;19.75;nan;99565.63;5014192;28;20144;-75
2023/08/02 01:10:26;;;;;;;7.25;3.35;;;;;;;19.81;nan;99566.28;5013421;28;20034;-74
2023/08/02 01:12:55;;;;;;;4.47;3.27;;;;;;;19.72;nan;99556.34;5013289;28;20045;-75
2023/08/02 01:15:21;;;;;;;6.70;3.67;;;;;;;19.79;nan;99561.25;5021893;28;20057;-75
2023/08/02 01:17:49;;;;;;;5.72;3.25;;;;;;;19.87;nan;99565.84;5016776;28;20037;-73
2023/08/02 01:20:15;;;;;;;11.00;3.77;;;;;;;19.91;nan;99564.13;5016680;28;20026;-74
2023/08/02 01:22:40;;;;;;;6.25;3.50;;;;;;;19.91;nan;99552.66;5016591;28;20302;-74
2023/08/02 01:25:06;;;;;;;7.85;3.63;;;;;;;19.82;nan;99536.56;5019848;28;20029;-74
2023/08/02 01:27:42;;;;;;;8.55;3.58;;;;;;;19.91;nan;99604.22;5016884;28;20147;-74
2023/08/02 01:30:13;;;;;;;7.93;3.60;;;;;;;19.88;nan;99596.03;5016511;28;20112;-74
2023/08/02 01:32:38;;;;;;;5.57;3.65;;;;;;;19.86;nan;99607.00;5017654;28;20052;-75
2023/08/02 01:35:04;;;;;;;12.68;3.83;;;;;;;19.91;nan;99616.78;5016557;28;20068;-74
2023/08/02 01:37:32;;;;;;;5.68;3.63;;;;;;;19.84;nan;99606.53;5015051;28;20065;-73
2023/08/02 01:39:58;;;;;;;9.02;3.70;;;;;;;19.86;nan;99623.03;5017075;28;20193;-74
2023/08/02 01:42:23;;;;;;;10.60;3.58;;;;;;;19.91;nan;99636.28;5017368;28;20116;-74
2023/08/02 01:44:48;;;;;;;6.85;3.30;;;;;;;19.81;nan;99631.19;5017131;28;20037;-74
2023/08/02 01:47:15;;;;;;;9.32;3.50;;;;;;;19.80;nan;99655.53;5018909;28;20025;-75
2023/08/02 01:49:41;;;;;;;6.63;2.92;;;;;;;19.65;nan;99660.13;5013782;28;20018;-74
2023/08/02 01:52:06;;;;;;;8.68;3.08;;;;;;;19.67;nan;99668.63;5016541;28;20036;-74
2023/08/02 01:54:32;;;;;;;6.22;2.60;;;;;;;19.69;nan;99679.03;5017912;28;20096;-73
2023/08/02 01:56:57;;;;;;;6.40;3.10;;;;;;;19.58;nan;99669.66;5014586;28;20030;-74
2023/08/02 01:59:23;;;;;;;7.13;2.97;;;;;;;19.63;nan;99691.69;5017126;28;20034;-74
2023/08/02 02:01:48;;;;;;;5.15;3.20;;;;;;;19.46;nan;99684.31;5015174;28;20041;-74
2023/08/02 02:04:13;;;;;;;5.47;3.33;;;;;;;19.49;nan;99693.59;5014415;28;20026;-74
2023/08/02 02:06:39;;;;;;;7.93;2.78;;;;;;;19.39;nan;99691.94;5014866;28;20111;-74
2023/08/02 02:09:04;;;;;;;5.93;2.80;;;;;;;19.43;nan;99702.81;5012989;28;20100;-74
2023/08/02 02:11:29;;;;;;;6.28;2.78;;;;;;;19.42;nan;99717.25;5014559;28;20026;-74
2023/08/02 02:13:55;;;;;;;6.05;2.58;;;;;;;19.41;nan;99721.81;5016029;28;21731;-74
2023/08/02 02:16:20;;;;;;;7.43;3.17;;;;;;;19.39;nan;99718.66;5016165;28;20033;-75
2023/08/02 02:18:46;;;;;;;5.72;3.08;;;;;;;19.43;nan;99734.88;5014550;28;20026;-74
2023/08/02 02:21:11;;;;;;;5.15;2.78;;;;;;;19.44;nan;99745.25;5013492;28;20092;-74
2023/08/02 02:23:36;;;;;;;3.53;2.40;;;;;;;19.45;nan;99751.38;5016126;28;20087;-73
2023/08/02 02:26:02;;;;;;;4.10;2.63;;;;;;;19.45;nan;99751.38;5012286;28;20398;-74
2023/08/02 02:28:27;;;;;;;4.20;2.78;;;;;;;19.43;nan;99751.69;5045442;28;20033;-74
2023/08/02 02:30:52;;;;;;;6.15;3.00;;;;;;;19.40;nan;99764.84;5014487;28;20171;-74
2023/08/02 02:33:18;;;;;;;5.88;3.08;;;;;;;19.40;nan;99767.50;5015908;28;20761;-75
2023/08/02 02:35:43;;;;;;;7.22;3.55;;;;;;;19.43;nan;99765.03;5016289;28;20080;-74
2023/08/02 02:38:08;;;;;;;5.50;3.55;;;;;;;19.29;nan;99773.03;5014489;28;20026;-74
2023/08/02 02:40:34;;;;;;;8.95;3.53;;;;;;;19.34;nan;99774.81;5017161;28;20029;-74
2023/08/02 02:42:59;;;;;;;5.20;3.00;;;;;;;19.24;nan;99756.34;5013300;28;20044;-74
2023/08/02 02:45:25;;;;;;;4.22;2.78;;;;;;;19.32;nan;99760.97;5014244;28;20034;-75
2023/08/02 02:47:50;;;;;;;7.13;3.42;;;;;;;19.27;nan;99779.78;5018771;28;20034;-73
2023/08/02 02:50:17;;;;;;;9.40;3.42;;;;;;;19.30;nan;99787.22;5021095;28;20084;-73
2023/08/02 02:52:42;;;;;;;6.88;3.40;;;;;;;19.17;nan;99788.78;5020672;28;20041;-73
2023/08/02 02:55:09;;;;;;;6.15;3.50;;;;;;;19.09;nan;99787.59;5017709;28;20029;-74
2023/08/02 02:57:35;;;;;;;6.88;3.58;;;;;;;19.10;nan;99780.38;5019514;28;20026;-73
2023/08/02 03:00:00;;;;;;;6.05;3.60;;;;;;;18.99;nan;99793.13;5020813;28;20388;-73
2023/08/02 03:02:25;;;;;;;6.13;3.65;;;;;;;18.80;nan;99787.09;5021761;28;20033;-72
2023/08/02 03:04:51;;;;;;;5.50;3.75;;;;;;;18.86;nan;99804.56;5017894;28;20040;-73
2023/08/02 03:07:16;;;;;;;9.77;3.95;;;;;;;18.86;nan;99800.03;5016114;28;20026;-73
2023/08/02 03:09:41;;;;;;;6.13;4.55;;;;;;;18.82;nan;99799.03;5015725;28;20036;-72
2023/08/02 03:12:08;;;;;;;6.88;4.68;;;;;;;18.74;nan;99793.56;5021884;28;20030;-72
2023/08/02 03:14:33;;;;;;;8.27;4.78;;;;;;;18.71;nan;99790.38;5025475;28;20428;-72
2023/08/02 03:16:58;;;;;;;9.02;5.80;;;;;;;18.71;nan;99789.59;5019614;28;20029;-73
2023/08/02 03:19:24;;;;;;;8.85;5.38;;;;;;;18.78;nan;99784.72;5018842;28;20164;-71
2023/08/02 03:21:49;;;;;;;8.35;5.10;;;;;;;18.74;nan;99781.00;5018584;28;20092;-73
2023/08/02 03:24:14;;;;;;;8.85;5.20;;;;;;;18.84;nan;99788.06;5018062;28;20021;-73
2023/08/02 03:26:40;;;;;;;7.85;5.05;;;;;;;18.87;nan;99788.28;5019066;28;20116;-74
2023/08/02 03:29:05;;;;;;;9.13;5.40;;;;;;;18.97;nan;99797.97;5021954;28;20113;-73
2023/08/02 03:31:31;;;;;;;7.53;4.78;;;;;;;18.94;nan;99800.41;5022309;28;20033;-73
2023/08/02 03:33:56;;;;;;;8.50;5.38;;;;;;;18.85;nan;99803.00;5021027;28;20028;-73
2023/08/02 03:36:21;;;;;;;7.05;6.07;;;;;;;18.64;nan;99797.19;5018596;28;20036;-73
2023/08/02 03:38:47;;;;;;;7.88;6.22;;;;;;;18.65;nan;99825.44;5038397;28;20037;-75
2023/08/02 03:41:12;;;;;;;11.55;6.30;;;;;;;18.48;nan;99813.47;5040880;28;20036;-78
2023/08/02 03:43:37;;;;;;;9.02;6.30;;;;;;;18.61;nan;99840.44;5044119;28;20041;-77
2023/08/02 03:46:03;;;;;;;7.45;6.10;;;;;;;18.58;nan;99835.69;5043188;28;20045;-77
2023/08/02 03:48:31;;;;;;;8.38;6.15;;;;;;;18.52;nan;99826.97;5042276;28;20017;-77
2023/08/02 03:50:56;;;;;;;10.40;6.03;;;;;;;18.62;nan;99847.34;5040227;28;20040;-72
2023/08/02 03:53:23;;;;;;;9.82;6.40;;;;;;;18.47;nan;99825.19;5043013;28;20021;-73
2023/08/02 03:55:49;;;;;;;12.10;7.38;;;;;;;18.41;nan;99833.56;5042014;28;20018;-73
2023/08/02 03:58:14;;;;;;;9.10;6.38;;;;;;;18.48;nan;99842.78;5047253;28;20029;-75
2023/08/02 04:00:39;;;;;;;9.23;6.60;;;;;;;18.42;nan;99843.94;5042631;28;20044;-73
2023/08/02 04:03:05;;;;;;;11.50;6.13;;;;;;;18.47;nan;99843.84;5038744;28;20028;-72
2023/08/02 04:05:30;;;;;;;12.93;6.80;;;;;;;18.41;nan;99845.03;5040247;28;20510;-72
2023/08/02 04:07:55;;;;;;;8.70;6.88;;;;;;;18.31;nan;99845.16;5036588;28;20034;-71
2023/08/02 04:10:21;;;;;;;11.05;6.88;;;;;;;18.37;nan;99846.69;5042002;28;20081;-77
2023/08/02 04:12:46;;;;;;;8.32;6.70;;;;;;;18.32;nan;99856.66;5040517;28;20029;-77
2023/08/02 04:15:12;;;;;;;10.30;6.78;;;;;;;18.29;nan;99863.31;5044423;28;20009;-77
2023/08/02 04:17:37;;;;;;;8.13;7.20;;;;;;;18.24;nan;99864.22;5029656;28;20037;-75
2023/08/02 04:20:03;;;;;;;9.15;6.80;;;;;;;18.26;nan;99882.56;5038753;28;20029;-76
2023/08/02 04:22:31;;;;;;;9.85;6.38;;;;;;;18.35;nan;99880.03;5040534;28;20045;-76
2023/08/02 04:24:57;;;;;;;9.85;6.65;;;;;;;18.28;nan;99897.19;5026416;28;20036;-77
2023/08/02 04:27:22;;;;;;;9.75;6.90;;;;;;;18.23;nan;99893.81;5034197;28;20140;-77
2023/08/02 04:29:48;;;;;;;8.73;7.07;;;;;;;18.33;nan;99906.19;5033953;28;20040;-73
2023/08/02 04:32:14;;;;;;;7.70;6.68;;;;;;;18.38;nan;99898.91;5020184;28;20033;-72
2023/08/02 04:34:39;;;;;;;9.23;6.50;;;;;;;18.37;nan;99891.22;5016423;28;20035;-73
2023/08/02 04:37:04;;;;;;;10.65;8.00;;;;;;;18.37;nan;99884.00;5017154;28;20057;-73
2023/08/02 04:39:30;;;;;;;10.70;8.18;;;;;;;18.48;nan;99903.28;5012524;28;20566;-71
2023/08/02 04:41:55;;;;;;;10.38;7.50;;;;;;;18.47;nan;99913.16;5012647;28;20117;-73
2023/08/02 04:44:21;;;;;;;11.02;7.50;;;;;;;18.45;nan;99915.34;5016253;28;20056;-73
2023/08/02 04:46:46;;;;;;;7.45;6.35;;;;;;;18.24;nan;99880.19;5018544;28;20038;-73
2023/08/02 04:49:11;;;;;;;9.88;6.10;;;;;;;18.37;nan;99904.53;5019560;28;20087;-76
2023/08/02 04:51:38;;;;;;;7.63;6.45;;;;;;;18.36;nan;99905.59;5023867;28;20040;-75
2023/08/02 04:54:04;;;;;;;7.85;6.40;;;;;;;18.32;nan;99888.63;5019458;28;20034;-73
2023/08/02 04:56:30;;;;;;;7.22;5.95;;;;;;;18.30;nan;99880.13;5019969;28;20188;-76
2023/08/02 04:58:55;;;;;;;7.80;6.35;;;;;;;18.39;nan;99907.69;5019690;28;20030;-77
2023/08/02 05:01:21;;;;;;;8.50;6.32;;;;;;;18.32;nan;99900.06;5047141;28;20559;-77
2023/08/02 05:03:46;;;;;;;7.38;5.78;;;;;;;18.42;nan;99907.13;5017365;28;20113;-77
2023/08/02 05:06:12;;;;;;;8.00;5.65;;;;;;;18.51;nan;99913.41;5025283;28;20069;-78
2023/08/02 05:08:37;;;;;;;10.93;6.03;;;;;;;18.32;nan;99889.41;5022188;28;20037;-78
2023/08/02 05:11:06;;;;;;;6.10;5.43;;;;;;;18.54;nan;99922.69;5018872;28;20052;-78
2023/08/02 05:13:32;;;;;;;;;;;;;;;18.58;nan;99932.50;5021122;28;20033;-79
2023/08/02 05:15:57;;;;;;;7.07;5.40;;;;;;;18.58;nan;99926.34;5018724;28;20476;-79
2023/08/02 05:18:23;;;;;;;9.43;5.35;;;;;;;18.58;nan;99924.50;5019516;28;20037;-79
2023/08/02 05:20:49;;;;;;;6.85;4.80;;;;;;;18.62;nan;99938.03;5019452;28;20504;-77
2023/08/02 05:23:14;;;;;;;6.68;5.30;;;;;;;18.71;nan;99949.63;5020186;28;20192;-73
2023/08/02 05:25:40;;;;;;;10.75;5.40;;;;;;;18.69;nan;99949.91;5015658;28;20030;-73
2023/08/02 05:28:06;;;;;;;8.45;4.82;;;;;;;18.70;nan;99942.72;5021203;28;20475;-72
2023/08/02 05:30:32;;;;;;;5.80;4.65;;;;;;;18.75;nan;99953.31;5015852;28;20026;-72
2023/08/02 05:32:57;;;;;;;7.95;4.57;;;;;;;18.73;nan;99949.34;5014515;28;20022;-72
2023/08/02 05:35:25;;;;;;;6.88;4.22;;;;;;;18.63;nan;99942.28;5015436;28;20176;-73
2023/08/02 05:37:54;;;;;;;6.40;4.57;;;;;;;18.76;nan;99965.59;5018939;28;20017;-70
2023/08/02 05:40:19;;;;;;;7.05;4.40;;;;;;;18.68;nan;99961.66;5018430;28;20649;-71
2023/08/02 05:42:45;;;;;;;5.22;4.00;;;;;;;18.66;nan;99968.38;5018695;28;20051;-71
2023/08/02 05:45:10;;;;;;;6.63;4.10;;;;;;;18.37;nan;99939.19;5012920;28;20018;-72
2023/08/02 05:47:36;;;;;;;6.82;3.80;;;;;;;18.61;nan;99976.47;5013651;28;20083;-73
2023/08/02 05:50:02;;;;;;;3.53;3.13;;;;;;;18.55;nan;99957.06;5012668;28;20086;-73
2023/08/02 05:52:27;;;;;;;5.18;3.30;;;;;;;18.70;nan;99972.06;5014362;28;20034;-72
2023/08/02 05:54:53;;;;;;;4.57;3.58;;;;;;;18.67;nan;99956.63;5012284;28;20091;-72
2023/08/02 05:57:18;;;;;;;4.28;3.17;;;;;;;18.70;nan;99956.06;5023158;28;20646;-74
2023/08/02 05:59:44;;;;;;;4.05;3.45;;;;;;;18.74;nan;99953.59;5025414;28;20030;-75
2023/08/02 06:02:09;;;;;;;8.88;3.45;;;;;;;18.79;nan;99942.88;5016912;28;20025;-73
2023/08/02 06:04:36;;;;;;;9.98;3.33;;;;;;;18.93;nan;99957.06;5017289;28;20108;-75
2023/08/02 06:07:02;;;;;;;4.65;3.65;;;;;;;19.03;nan;99956.09;5015747;28;20028;-72
2023/08/02 06:09:28;;;;;;;3.58;2.75;;;;;;;19.16;nan;99955.34;5015294;28;20037;-69
2023/08/02 06:11:53;;;;;;;4.32;2.97;;;;;;;19.29;nan;99967.13;5023990;28;20052;-68
2023/08/02 06:14:19;;;;;;;3.55;2.65;;;;;;;19.43;nan;99972.50;5015216;28;20407;-68
2023/08/02 06:16:44;;;;;;;3.20;2.22;;;;;;;19.55;nan;99983.50;5012167;28;20033;-69
2023/08/02 06:19:09;;;;;;;3.75;2.35;;;;;;;19.71;nan;99981.38;5016109;28;20088;-73
2023/08/02 06:21:35;;;;;;;3.25;2.22;;;;;;;19.73;nan;99969.31;5024158;28;20100;-67
2023/08/02 06:24:01;;;;;;;3.63;2.60;;;;;;;19.84;nan;99975.25;5022664;28;20046;-67
2023/08/02 06:26:27;;;;;;;6.53;2.65;;;;;;;19.95;nan;99978.53;5019784;28;20033;-68
2023/08/02 06:28:53;;;;;;;3.70;2.65;;;;;;;19.96;nan;99977.41;5017617;28;20021;-68
2023/08/02 06:31:18;;;;;;;6.10;2.70;;;;;;;19.94;nan;99974.25;5021662;28;20040;-68
2023/08/02 06:33:44;;;;;;;4.78;2.67;;;;;;;20.00;nan;99974.97;5021512;28;20445;-68
2023/08/02 06:36:09;;;;;;;5.45;3.05;;;;;;;20.07;nan;99986.81;5019888;28;20029;-68
2023/08/02 06:38:35;;;;;;;5.28;2.83;;;;;;;20.11;nan;99974.47;5018815;28;20033;-72
2023/08/02 06:41:00;;;;;;;5.25;2.78;;;;;;;20.27;nan;99977.59;5018573;28;20014;-68
2023/08/02 06:43:25;;;;;;;11.13;2.70;;;;;;;20.34;nan;99974.50;5022365;28;20041;-72
2023/08/02 06:45:51;;;;;;;4.00;2.83;;;;;;;20.38;nan;99972.81;5022901;28;20365;-68
2023/08/02 06:48:19;;;;;;;5.70;2.78;;;;;;;20.40;nan;99973.31;5014626;28;20025;-74
2023/08/02 06:50:45;;;;;;;3.85;2.42;;;;;;;20.60;nan;99980.13;5018246;28;20117;-68
2023/08/02 06:53:10;;;;;;;5.72;2.40;;;;;;;20.55;nan;99978.34;5017906;28;20112;-68
2023/08/02 06:55:36;;;;;;;9.13;7.97;;;;;;;20.62;nan;99971.81;5017622;28;20391;-69
2023/08/02 06:58:01;;;;;;;4.50;3.00;;;;;;;20.74;nan;99980.09;5017276;28;20040;-68
2023/08/02 07:00:32;;;;;;;5.78;2.88;;;;;;;20.73;nan;99971.25;5020099;28;20030;-69
2023/08/02 07:02:59;;;;;;;3.90;2.70;;;;;;;20.82;nan;99982.81;5021431;28;20533;-68
2023/08/02 07:05:28;;;;;;;4.63;2.90;;;;;;;20.87;nan;99981.13;5019013;28;20575;-68
2023/08/02 07:07:53;;;;;;;4.53;2.67;;;;;;;20.91;nan;99984.78;5017796;28;20499;-67
2023/08/02 07:10:20;;;;;;;5.03;2.60;;;;;;;20.93;nan;99971.88;5018442;28;20025;-67
2023/08/02 07:12:45;;;;;;;4.30;2.65;;;;;;;20.98;nan;99975.22;5016811;28;20057;-68
2023/08/02 07:15:10;;;;;;;4.13;2.50;;;;;;;21.08;nan;99984.09;5016941;28;20069;-68
2023/08/02 07:17:36;;;;;;;4.53;2.50;;;;;;;21.10;nan;99984.59;5034165;28;20396;-68
2023/08/02 07:20:02;;;;;;;3.55;2.40;;;;;;;21.19;nan;100001.47;5012736;28;20080;-68
2023/08/02 07:22:28;;;;;;;4.60;2.80;;;;;;;21.22;nan;99996.31;5024449;28;20514;-74
2023/08/02 07:24:53;;;;;;;4.60;2.80;;;;;;;21.25;nan;99984.19;5017664;28;20030;-74
2023/08/02 07:27:18;;;;;;;3.40;2.65;;;;;;;21.33;nan;99982.66;5020757;28;20540;-72
2023/08/02 07:29:49;;;;;;;3.83;2.38;;;;;;;21.39;nan;99990.31;5017482;28;20100;-73
2023/08/02 07:32:14;;;;;;;5.18;2.35;;;;;;;21.47;nan;99986.06;5016155;28;20031;-73
2023/08/02 07:34:39;;;;;;;3.55;2.80;;;;;;;21.58;nan;99997.34;5021425;28;20501;-73
2023/08/02 07:37:05;;;;;;;3.15;2.70;;;;;;;21.65;nan;99989.66;5020689;28;20108;-72
2023/08/02 07:39:30;;;;;;;5.53;2.60;;;;;;;21.71;nan;99998.31;5019039;28;20487;-72
2023/08/02 07:41:56;;;;;;;3.70;2.22;;;;;;;21.77;nan;100000.56;5018007;28;20586;-72
2023/08/02 07:44:21;;;;;;;4.00;2.30;;;;;;;21.85;nan;100005.16;5019093;28;20038;-71
2023/08/02 07:46:46;;;;;;;3.40;2.30;;;;;;;21.92;nan;100018.13;5018156;28;20025;-72
2023/08/02 07:49:12;;;;;;;4.63;2.28;;;;;;;21.97;nan;100014.50;5016914;28;20336;-72
2023/08/02 07:51:37;;;;;;;3.45;2.30;;;;;;;22.00;nan;100019.25;5017167;28;20128;-72
2023/08/02 07:54:03;;;;;;;3.53;2.20;;;;;;;22.05;nan;100011.06;5018300;28;20022;-72
2023/08/02 07:56:28;;;;;;;4.97;2.60;;;;;;;22.10;nan;100005.56;5018498;28;20057;-72
2023/08/02 07:58:53;;;;;;;3.53;2.20;;;;;;;22.17;nan;100013.13;5015353;28;20145;-74
2023/08/02 08:01:19;;;;;;;3.35;2.30;;;;;;;22.13;nan;100007.63;5015312;28;20022;-73
2023/08/02 08:03:44;;;;;;;2.90;2.22;;;;;;;22.12;nan;100000.66;5014553;28;20654;-74
2023/08/02 08:06:12;;;;;;;3.10;2.30;;;;;;;22.22;nan;100011.16;5017479;28;20032;-73
2023/08/02 08:08:37;;;;;;;4.70;2.55;;;;;;;22.33;nan;100002.81;5016960;28;20029;-73
2023/08/02 08:11:03;;;;;;;5.57;2.50;;;;;;;22.34;nan;100005.19;5013875;28;20153;-73
2023/08/02 08:13:28;;;;;;;3.38;2.13;;;;;;;22.34;nan;100001.69;5015642;28;20575;-74
2023/08/02 08:15:54;;;;;;;4.88;1.92;;;;;;;22.44;nan;100004.88;5015787;28;20030;-75
2023/08/02 08:18:19;;;;;;;4.35;2.30;;;;;;;22.48;nan;100002.34;5015009;28;20124;-73
2023/08/02 08:20:44;;;;;;;3.53;2.40;;;;;;;22.58;nan;100002.06;5019153;28;20029;-74
2023/08/02 08:23:10;;;;;;;5.03;2.35;;;;;;;22.62;nan;100005.66;5018255;28;20057;-74
2023/08/02 08:25:35;;;;;;;3.95;2.47;;;;;;;22.59;nan;99997.47;5014866;28;20068;-73
2023/08/02 08:28:01;;;;;;;3.63;2.53;;;;;;;22.56;nan;99987.38;5016709;28;20030;-73
2023/08/02 08:30:26;;;;;;;4.10;2.00;;;;;;;22.66;nan;100003.16;5015833;28;20395;-74
2023/08/02 08:32:51;;;;;;;3.60;2.30;;;;;;;22.69;nan;99995.25;5023450;28;20029;-74
2023/08/02 08:35:17;;;;;;;7.80;2.35;;;;;;;22.85;nan;100011.69;5016254;28;20078;-74
2023/08/02 08:37:42;;;;;;;2.85;2.15;;;;;;;22.88;nan;100004.88;5018596;28;20029;-75
2023/08/02 08:40:16;;;;;;;5.65;2.47;;;;;;;22.89;nan;99996.53;5018408;28;20050;-73
2023/08/02 08:42:48;;;;;;;4.50;2.17;;;;;;;22.92;nan;99992.41;5016310;28;20645;-75
2023/08/02 08:45:17;;;;;;;3.35;2.38;;;;;;;22.91;nan;99988.94;5015030;28;20040;-69
2023/08/02 08:47:45;;;;;;;3.15;1.88;;;;;;;23.02;nan;99996.69;5024338;28;20779;-68
2023/08/02 08:50:10;;;;;;;4.43;1.88;;;;;;;23.03;nan;99995.56;5015153;28;20030;-73
2023/08/02 08:52:36;;;;;;;2.42;1.98;;;;;;;23.03;nan;99990.97;5017809;28;20428;-73
2023/08/02 08:55:04;;;;;;;4.00;1.92;;;;;;;23.18;nan;99996.97;5015827;28;20076;-73
2023/08/02 08:57:31;;;;;;;6.38;2.00;;;;;;;23.21;nan;99997.13;5016787;28;20029;-75
2023/08/02 08:59:57;;;;;;;2.15;1.75;;;;;;;23.22;nan;99985.25;5015682;28;20021;-74
2023/08/02 09:02:23;;;;;;;2.25;1.50;;;;;;;23.26;nan;99982.75;5007845;28;20478;-75
2023/08/02 09:04:51;;;;;;;1.80;1.50;;;;;;;23.42;nan;100004.53;5012081;28;20031;-74
2023/08/02 09:07:16;;;;;;;3.33;1.92;;;;;;;23.50;nan;100003.69;5016590;28;20388;-72
2023/08/02 09:09:42;;;;;;;5.60;2.28;;;;;;;23.53;nan;100003.81;5015912;28;20022;-72
2023/08/02 09:12:08;;;;;;;3.13;1.90;;;;;;;23.54;nan;100005.41;5014657;28;20033;-72
2023/08/02 09:14:33;;;;;;;4.63;1.80;;;;;;;23.53;nan;99998.44;5019789;28;20021;-74
2023/08/02 09:17:01;;;;;;;3.10;2.00;;;;;;;23.57;nan;99994.00;5016892;28;20060;-72
2023/08/02 09:19:31;;;;;;;4.22;1.98;;;;;;;23.69;nan;100006.00;5013175;28;20032;-72
2023/08/02 09:22:10;;;;;;;3.95;1.98;;;;;;;23.78;nan;100004.88;5014706;28;20045;-69
2023/08/02 09:24:37;;;;;;;2.47;1.77;;;;;;;23.87;nan;100012.91;5029665;28;20034;-73
2023/08/02 09:27:05;;;;;;;2.25;1.42;;;;;;;23.92;nan;100010.03;5013955;28;20068;-73
2023/08/02 09:29:49;;;;;;;4.03;1.52;;;;;;;23.97;nan;99991.03;5017412;28;20435;-74
2023/08/02 09:32:16;;;;;;;3.45;1.50;;;;;;;23.98;nan;99992.59;5014063;28;20156;-73
2023/08/02 09:34:47;;;;;;;2.95;1.88;;;;;;;24.08;nan;100001.41;5016086;28;20036;-72
2023/08/02 09:37:14;;;;;;;2.67;1.30;;;;;;;24.04;nan;99987.84;5015978;28;20053;-72
2023/08/02 09:39:48;;;;;;;2.80;1.60;;;;;;;24.17;nan;99994.88;5019281;28;20501;-69
2023/08/02 09:42:14;;;;;;;2.65;1.42;;;;;;;24.21;nan;99989.63;5016424;28;20041;-69
2023/08/02 09:44:41;;;;;;;4.13;1.73;;;;;;;24.28;nan;99994.47;5014392;28;20043;-68
2023/08/02 09:47:11;;;;;;;3.63;1.50;;;;;;;24.32;nan;99996.19;5015412;28;20622;-69
2023/08/02 09:49:40;;;;;;;3.03;1.70;;;;;;;24.33;nan;99988.94;5013865;28;20341;-72
2023/08/02 09:52:07;;;;;;;1.77;1.30;;;;;;;24.38;nan;99986.81;5015429;28;20025;-68
2023/08/02 09:54:33;;;;;;;3.00;1.77;;;;;;;24.41;nan;99988.84;5014417;28;20068;-72
2023/08/02 09:57:01;;;;;;;3.60;1.40;;;;;;;24.37;nan;99984.44;5023414;28;20036;-72
2023/08/02 09:59:29;;;;;;;2.03;1.52;;;;;;;24.44;nan;99989.31;5014172;28;20034;-72
2023/08/02 10:01:55;;;;;;;2.83;1.58;;;;;;;24.42;nan;99974.28;5018072;28;20036;-73
2023/08/02 10:04:23;;;;;;;1.75;1.40;;;;;;;24.59;nan;99986.84;5017110;28;20471;-72
2023/08/02 10:07:03;;;;;;;1.52;1.33;;;;;;;24.68;nan;99992.16;5016308;28;20042;-73
2023/08/02 10:09:31;;;;;;;4.15;1.60;;;;;;;24.80;nan;99980.66;5014381;28;20084;-73
2023/08/02 10:12:13;;;;;;;1.77;1.48;;;;;;;24.89;nan;99981.38;5017523;28;20032;-73
2023/08/02 10:14:40;;;;;;;2.35;1.60;;;;;;;24.76;nan;99947.44;5014273;28;20052;-69
2023/08/02 10:17:06;;;;;;;1.90;1.58;;;;;;;25.07;nan;99986.56;5012995;28;20026;-69
2023/08/02 10:19:34;;;;;;;2.88;1.52;;;;;;;25.12;nan;99976.41;5016022;28;20516;-69
2023/08/02 10:22:00;;;;;;;3.38;1.50;;;;;;;25.23;nan;99991.03;5012636;28;20107;-69
2023/08/02 10:24:27;;;;;;;3.00;1.65;;;;;;;25.21;nan;99985.22;5014224;28;20106;-69
2023/08/02 10:27:05;;;;;;;2.00;1.40;;;;;;;25.19;nan;99984.75;5031366;28;20026;-72
2023/08/02 10:29:33;;;;;;;2.33;1.42;;;;;;;25.18;nan;99977.00;5016732;28;20032;-72
2023/08/02 10:32:13;;;;;;;3.15;1.20;;;;;;;25.31;nan;99985.88;5017957;28;20099;-73
2023/08/02 10:34:38;;;;;;;1.70;1.40;;;;;;;25.41;nan;99988.16;5016480;28;20068;-73
2023/08/02 10:37:04;;;;;;;3.13;1.35;;;;;;;25.29;nan;99994.31;5022099;28;20046;-72
2023/08/02 10:39:45;;;;;;;2.00;1.38;;;;;;;25.32;nan;99988.25;5016103;28;20041;-73
2023/08/02 10:42:11;;;;;;;3.53;1.33;;;;;;;25.38;nan;99976.16;5018228;28;20138;-72
2023/08/02 10:44:36;;;;;;;1.88;1.25;;;;;;;25.42;nan;99984.34;5016132;28;20064;-72
2023/08/02 10:47:29;;;;;;;5.03;1.63;;;;;;;25.51;nan;99965.38;5014153;28;20717;-73
2023/08/02 10:49:56;;;;;;;2.35;1.40;;;;;;;25.51;nan;99960.75;5013947;28;20092;-72
2023/08/02 10:52:38;;;;;;;1.63;1.20;;;;;;;25.62;nan;99972.69;5016054;28;20036;-72
2023/08/02 10:55:17;;;;;;;2.60;1.30;;;;;;;25.73;nan;99966.84;5017161;28;20033;-72
2023/08/02 10:57:55;;;;;;;1.92;1.33;;;;;;;25.75;nan;99967.28;5021989;28;20431;-68
2023/08/02 11:00:25;;;;;;;2.15;1.38;;;;;;;25.75;nan;99972.69;5015095;28;20115;-69
2023/08/02 11:02:52;;;;;;;2.03;1.40;;;;;;;25.67;nan;99958.97;5015458;28;20029;-68
2023/08/02 11:05:43;;;;;;;3.10;1.20;;;;;;;25.79;nan;99960.88;5017035;28;20025;-68
2023/08/02 11:08:09;;;;;;;2.50;1.08;;;;;;;25.83;nan;99956.38;5019903;28;20029;-67
2023/08/02 11:10:54;;;;;;;1.85;1.27;;;;;;;25.82;nan;99951.31;5014871;28;20544;-67
2023/08/02 11:13:21;;;;;;;1.67;1.30;;;;;;;25.91;nan;99952.03;5016825;28;20080;-68
2023/08/02 11:15:58;;;;;;;1.67;1.27;;;;;;;25.93;nan;99944.38;5020245;28;20025;-67
2023/08/02 11:18:25;;;;;;;2.00;1.23;;;;;;;26.00;nan;99941.91;5018779;28;20029;-69
2023/08/02 11:20:50;;;;;;;1.77;1.00;;;;;;;25.96;nan;99938.31;5022394;28;20026;-69
2023/08/02 11:23:25;;;;;;;2.33;1.20;;;;;;;25.98;nan;99948.75;5018736;28;20112;-69
2023/08/02 11:26:04;;;;;;;1.75;1.40;;;;;;;25.99;nan;99950.31;5031611;28;20029;-73
2023/08/02 11:28:38;;;;;;;2.55;1.40;;;;;;;25.96;nan;99938.31;5037545;28;20022;-72
2023/08/02 11:31:05;;;;;;;2.17;1.25;;;;;;;26.02;nan;99936.16;5042233;28;19997;-76
2023/08/02 11:33:31;;;;;;;4.85;1.30;;;;;;;26.07;nan;99931.31;5043688;28;20033;-75
2023/08/02 11:35:57;;;;;;;1.33;1.17;;;;;;;26.14;nan;99930.72;5041908;28;20092;-74
2023/08/02 11:38:24;;;;;;;3.05;1.25;;;;;;;26.11;nan;99912.53;5045226;28;20033;-72
2023/08/02 11:40:49;;;;;;;1.52;1.13;;;;;;;26.25;nan;99922.94;5040463;28;20032;-73
2023/08/02 11:43:15;;;;;;;2.30;1.10;;;;;;;26.34;nan;99920.91;5049205;28;20013;-73
2023/08/02 11:45:41;;;;;;;1.33;1.13;;;;;;;26.35;nan;99914.34;5045039;28;20086;-72
2023/08/02 11:48:23;;;;;;;2.55;1.13;;;;;;;26.37;nan;99911.31;5044812;28;20085;-72